Time;durP1;ratioP1;P1;durP2;ratioP2;P2;SDS_P1;SDS_P2;PMS_P1;PMS_P2;Temp;Humidity;BMP_temperature;BMP_pressure;BME280_temperature;BME280_humidity;BME280_pressure;Samples;Min_cycle;Max_cycle;Signal;HPM_P1;HPM_P2
2023/06/19 00:00:42;;;;;;;0.00;0.00;;;;;;;20.44;62.28;99966.38;4974155;28;20244;-74
2023/06/19 00:03:07;;;;;;;0.00;0.00;;;;;;;20.48;62.25;99969.97;4974117;28;20640;-74
2023/06/19 00:05:33;;;;;;;0.00;0.00;;;;;;;20.47;62.31;99960.84;4974034;28;20184;-74
2023/06/19 00:07:58;;;;;;;0.07;0.07;;;;;;;20.43;63.09;99967.59;4973677;28;20287;-74
2023/06/19 00:10:24;;;;;;;0.00;0.00;;;;;;;20.48;63.00;99969.97;4973893;28;20604;-74
2023/06/19 00:12:49;;;;;;;0.00;0.00;;;;;;;20.49;63.47;99968.78;4974063;28;20189;-74
2023/06/19 00:15:15;;;;;;;0.00;0.00;;;;;;;20.35;63.37;99965.91;4974143;28;20668;-74
2023/06/19 00:17:41;;;;;;;0.00;0.00;;;;;;;20.29;63.23;99957.19;4973672;28;20181;-74
2023/06/19 00:20:07;;;;;;;0.00;0.00;;;;;;;20.11;64.10;99956.28;4973610;28;20208;-75
2023/06/19 00:22:32;;;;;;;0.00;0.00;;;;;;;20.11;63.46;99959.06;4973644;28;20557;-74
2023/06/19 00:24:58;;;;;;;0.00;0.00;;;;;;;20.22;63.43;99954.34;4973730;28;20281;-74
2023/06/19 00:27:24;;;;;;;0.00;0.00;;;;;;;20.19;62.60;99953.16;4973725;28;20235;-74
2023/06/19 00:29:50;;;;;;;0.00;0.00;;;;;;;20.28;61.59;99943.69;4971957;28;20291;-74
2023/06/19 00:32:16;;;;;;;0.00;0.00;;;;;;;20.36;61.34;99945.31;4973214;28;20625;-74
2023/06/19 00:34:42;;;;;;;0.00;0.00;;;;;;;20.45;60.89;99937.44;4973492;28;20335;-74
2023/06/19 00:37:09;;;;;;;0.00;0.00;;;;;;;20.48;61.12;99939.44;4973604;28;20541;-74
2023/06/19 00:39:35;;;;;;;0.00;0.00;;;;;;;20.47;60.77;99935.06;4973136;28;20559;-74
2023/06/19 00:42:01;;;;;;;0.00;0.00;;;;;;;20.56;61.46;99935.53;4973357;28;20207;-74
2023/06/19 00:44:26;;;;;;;0.13;0.13;;;;;;;20.57;61.21;99941.88;4973367;28;20604;-74
2023/06/19 00:46:58;;;;;;;0.00;0.00;;;;;;;20.57;61.20;99928.78;4980598;28;20558;-74
2023/06/19 00:49:25;;;;;;;0.00;0.00;;;;;;;20.56;61.15;99932.75;4973215;28;20187;-74
2023/06/19 00:51:51;;;;;;;0.00;0.00;;;;;;;20.59;61.17;99934.72;4973067;28;20269;-74
2023/06/19 00:54:17;;;;;;;0.00;0.00;;;;;;;20.58;61.46;99930.38;4973369;28;20212;-74
2023/06/19 00:56:44;;;;;;;0.00;0.00;;;;;;;20.46;62.08;99925.16;4973246;28;20191;-74
2023/06/19 00:59:16;;;;;;;0.00;0.00;;;;;;;20.54;61.88;99926.75;4982452;28;20276;-74
2023/06/19 01:01:42;;;;;;;0.00;0.00;;;;;;;20.63;62.13;99934.75;4973082;28;20280;-74
2023/06/19 01:04:07;;;;;;;0.00;0.00;;;;;;;20.60;62.95;99925.22;4973181;28;20651;-74
2023/06/19 01:06:49;;;;;;;0.00;0.00;;;;;;;20.60;63.26;99916.09;4973035;28;20193;-74
2023/06/19 01:09:16;;;;;;;0.00;0.00;;;;;;;20.60;63.86;99919.66;4972937;28;20195;-74
2023/06/19 01:11:52;;;;;;;0.00;0.00;;;;;;;20.65;64.04;99919.28;4973068;28;20210;-74
2023/06/19 01:14:35;;;;;;;0.00;0.00;;;;;;;20.64;64.12;99920.47;4973012;28;20216;-74
2023/06/19 01:17:02;;;;;;;0.00;0.00;;;;;;;20.60;63.39;99918.88;4973013;28;20653;-74
2023/06/19 01:19:28;;;;;;;0.00;0.00;;;;;;;20.56;63.87;99907.75;4972758;28;20535;-75
2023/06/19 01:21:53;;;;;;;0.00;0.00;;;;;;;20.52;63.99;99915.25;4972970;28;20210;-74
2023/06/19 01:24:19;;;;;;;0.00;0.00;;;;;;;20.48;64.34;99911.69;4983864;28;20192;-74
2023/06/19 01:26:45;;;;;;;0.00;0.00;;;;;;;20.44;64.04;99903.34;4987815;28;20215;-74
2023/06/19 01:29:13;;;;;;;0.10;0.10;;;;;;;20.29;65.58;99914.75;4972605;28;20218;-74
2023/06/19 01:31:46;;;;;;;0.00;0.00;;;;;;;20.13;66.56;99920.63;4972683;28;20221;-74
2023/06/19 01:34:13;;;;;;;0.00;0.00;;;;;;;19.99;66.89;99921.34;4972908;28;20199;-74
2023/06/19 01:36:38;;;;;;;0.00;0.00;;;;;;;19.92;67.64;99915.75;4972839;28;20186;-74
2023/06/19 01:39:04;;;;;;;0.00;0.00;;;;;;;19.96;68.22;99908.25;4972717;28;20587;-74
2023/06/19 01:41:31;;;;;;;0.00;0.00;;;;;;;19.80;68.49;99910.53;4973104;28;20206;-74
2023/06/19 01:43:57;;;;;;;0.20;0.20;;;;;;;19.75;68.73;99919.22;4974980;28;20186;-74
2023/06/19 01:46:23;;;;;;;0.00;0.00;;;;;;;19.62;69.61;99915.97;4976632;28;20181;-74
2023/06/19 01:48:48;;;;;;;0.30;0.30;;;;;;;19.53;69.43;99916.28;4976300;28;20675;-74
2023/06/19 01:51:14;;;;;;;0.00;0.00;;;;;;;19.31;69.34;99917.28;4976497;28;20260;-74
2023/06/19 01:53:39;;;;;;;0.60;0.60;;;;;;;18.96;69.94;99915.78;4976400;28;20655;-74
2023/06/19 01:56:04;;;;;;;1.50;1.40;;;;;;;18.78;71.70;99923.09;4976512;28;20192;-74
2023/06/19 01:58:30;;;;;;;0.53;0.53;;;;;;;18.54;72.75;99927.19;4976088;28;20237;-74
2023/06/19 02:00:55;;;;;;;0.00;0.00;;;;;;;18.44;73.95;99936.94;4975079;28;20754;-74
2023/06/19 02:03:20;;;;;;;0.13;0.13;;;;;;;18.40;73.82;99927.00;4976405;28;20192;-74
2023/06/19 02:05:46;;;;;;;0.00;0.00;;;;;;;18.46;74.29;99921.94;4976261;28;20265;-74
2023/06/19 02:08:11;;;;;;;0.00;0.00;;;;;;;18.52;74.78;99924.00;4976012;28;20269;-74
2023/06/19 02:10:37;;;;;;;0.40;0.40;;;;;;;18.46;75.22;99930.22;4976088;28;20745;-74
2023/06/19 02:13:02;;;;;;;0.00;0.00;;;;;;;18.45;74.45;99923.91;4985072;28;20200;-74
2023/06/19 02:15:28;;;;;;;0.10;0.10;;;;;;;18.56;74.71;99916.53;4990883;28;20237;-74
2023/06/19 02:17:55;;;;;;;0.60;0.60;;;;;;;18.53;72.72;99919.25;4975877;28;20185;-74
2023/06/19 02:20:21;;;;;;;0.00;0.00;;;;;;;18.54;72.94;99913.34;4974735;28;20220;-74
2023/06/19 02:22:47;;;;;;;0.07;0.07;;;;;;;18.50;74.06;99911.69;4975915;28;20611;-74
2023/06/19 02:25:12;;;;;;;0.00;0.00;;;;;;;18.54;74.28;99912.53;4976027;28;20178;-74
2023/06/19 02:27:38;;;;;;;0.00;0.00;;;;;;;18.65;73.96;99913.47;4976197;28;20204;-74
2023/06/19 02:30:04;;;;;;;0.10;0.10;;;;;;;18.67;71.85;99900.88;4975523;28;20236;-74
2023/06/19 02:32:30;;;;;;;0.00;0.00;;;;;;;18.73;71.43;99893.00;4988031;28;20193;-74
2023/06/19 02:34:55;;;;;;;0.00;0.00;;;;;;;18.84;70.29;99882.06;4976086;28;20301;-74
2023/06/19 02:37:21;;;;;;;0.00;0.00;;;;;;;18.92;69.92;99876.19;4975807;28;20647;-74
2023/06/19 02:39:46;;;;;;;0.20;0.20;;;;;;;19.06;69.85;99883.03;4975342;28;20190;-74
2023/06/19 02:42:11;;;;;;;0.00;0.00;;;;;;;19.16;69.35;99874.03;4975521;28;20616;-74
2023/06/19 02:44:37;;;;;;;0.10;0.10;;;;;;;19.16;69.44;99876.81;4975474;28;20643;-74
2023/06/19 02:47:02;;;;;;;0.00;0.00;;;;;;;19.27;69.18;99875.72;4975647;28;20197;-74
2023/06/19 02:49:27;;;;;;;0.00;0.00;;;;;;;19.35;69.35;99882.09;4975168;28;20189;-74
2023/06/19 02:51:53;;;;;;;0.00;0.00;;;;;;;19.29;68.21;99875.31;4975424;28;20223;-74
2023/06/19 02:54:18;;;;;;;0.00;0.00;;;;;;;19.32;67.98;99867.03;4974837;28;20300;-74
2023/06/19 02:56:43;;;;;;;0.00;0.00;;;;;;;19.39;67.58;99866.31;4974980;28;20193;-74
2023/06/19 02:59:09;;;;;;;0.00;0.00;;;;;;;19.51;67.08;99867.94;4974989;28;20194;-74
2023/06/19 03:01:34;;;;;;;0.00;0.00;;;;;;;19.51;66.41;99863.19;4973939;28;20268;-74
2023/06/19 03:03:59;;;;;;;0.10;0.10;;;;;;;19.45;66.62;99850.09;4975339;28;20191;-74
2023/06/19 03:06:26;;;;;;;0.00;0.00;;;;;;;19.48;67.18;99868.72;4975133;28;20182;-74
2023/06/19 03:08:51;;;;;;;0.00;0.00;;;;;;;19.39;67.75;99859.97;4975000;28;20667;-74
2023/06/19 03:11:17;;;;;;;0.00;0.00;;;;;;;19.40;67.70;99864.31;4974958;28;20252;-74
2023/06/19 03:13:51;;;;;;;0.00;0.00;;;;;;;19.48;68.00;99863.97;4974908;28;20248;-74
2023/06/19 03:16:16;;;;;;;0.00;0.00;;;;;;;19.55;67.83;99868.81;4975157;28;20264;-74
2023/06/19 03:18:44;;;;;;;0.00;0.00;;;;;;;19.71;68.84;99879.59;4974720;28;20269;-74
2023/06/19 03:21:10;;;;;;;0.00;0.00;;;;;;;19.76;68.87;99882.78;4974910;28;20209;-74
2023/06/19 03:23:36;;;;;;;0.00;0.00;;;;;;;19.68;69.84;99892.25;4975131;28;20186;-74
2023/06/19 03:26:01;;;;;;;0.10;0.10;;;;;;;19.66;70.73;99885.50;4975333;28;20175;-74
2023/06/19 03:28:27;;;;;;;0.00;0.00;;;;;;;19.56;70.78;99889.81;4975039;28;20229;-74
2023/06/19 03:30:52;;;;;;;0.00;0.00;;;;;;;19.52;70.44;99888.94;4974727;28;20691;-74
2023/06/19 03:33:17;;;;;;;0.10;0.10;;;;;;;19.48;70.99;99897.22;4974905;28;20269;-74
2023/06/19 03:35:43;;;;;;;0.53;0.53;;;;;;;19.47;67.86;99887.31;4974539;28;20244;-74
2023/06/19 03:38:08;;;;;;;0.00;0.00;;;;;;;19.57;64.97;99867.25;4974418;28;20666;-74
2023/06/19 03:40:34;;;;;;;0.00;0.00;;;;;;;19.72;63.79;99862.59;4974653;28;20552;-74
2023/06/19 03:42:59;;;;;;;0.00;0.00;;;;;;;19.85;63.47;99869.38;4974482;28;20266;-74
2023/06/19 03:45:24;;;;;;;0.63;0.63;;;;;;;19.93;62.70;99867.44;4974762;28;20547;-74
2023/06/19 03:47:50;;;;;;;0.00;0.00;;;;;;;19.99;61.59;99852.03;4974346;28;20269;-74
2023/06/19 03:50:15;;;;;;;0.00;0.00;;;;;;;20.14;60.40;99858.44;4974336;28;20248;-74
2023/06/19 03:52:40;;;;;;;0.80;0.80;;;;;;;20.27;59.76;99856.09;4974329;28;20609;-74
2023/06/19 03:55:06;;;;;;;0.00;0.00;;;;;;;20.39;59.33;99861.28;4974178;28;20209;-74
2023/06/19 03:57:31;;;;;;;0.00;0.00;;;;;;;20.50;58.74;99862.94;4974168;28;20591;-74
2023/06/19 03:59:57;;;;;;;0.00;0.00;;;;;;;20.55;58.33;99866.53;4974166;28;20186;-74
2023/06/19 04:02:22;;;;;;;0.00;0.00;;;;;;;20.53;59.99;99871.66;4974204;28;20264;-74
2023/06/19 04:04:48;;;;;;;0.00;0.00;;;;;;;20.39;60.41;99869.59;4974138;28;20189;-74
2023/06/19 04:07:13;;;;;;;0.00;0.00;;;;;;;20.47;59.85;99868.47;4973065;28;20189;-74
2023/06/19 04:09:39;;;;;;;0.40;0.40;;;;;;;20.57;61.70;99886.34;4973633;28;20182;-74
2023/06/19 04:12:05;;;;;;;0.00;0.00;;;;;;;20.33;65.69;99902.50;4973714;28;20249;-74
2023/06/19 04:14:30;;;;;;;0.00;0.00;;;;;;;20.28;66.82;99900.09;4973771;28;20647;-74
2023/06/19 04:16:55;;;;;;;0.00;0.00;;;;;;;20.14;67.76;99905.59;4973940;28;20184;-74
2023/06/19 04:19:21;;;;;;;0.00;0.00;;;;;;;20.22;68.53;99915.50;4972331;28;20592;-74
2023/06/19 04:21:46;;;;;;;0.00;0.00;;;;;;;19.96;70.12;99911.00;4973690;28;20230;-74
2023/06/19 04:24:11;;;;;;;0.00;0.00;;;;;;;19.71;71.14;99910.09;4974313;28;20190;-74
2023/06/19 04:26:37;;;;;;;0.00;0.00;;;;;;;19.79;70.94;99911.72;4973616;28;20182;-74
2023/06/19 04:29:03;;;;;;;0.00;0.00;;;;;;;19.76;70.54;99906.94;4973543;28;20193;-74
2023/06/19 04:31:28;;;;;;;0.00;0.00;;;;;;;19.78;71.31;99913.69;4973464;28;20226;-74
2023/06/19 04:33:56;;;;;;;0.00;0.00;;;;;;;19.96;71.67;99921.31;4973549;28;20190;-74
2023/06/19 04:36:22;;;;;;;0.00;0.00;;;;;;;20.03;71.22;99921.38;4972358;28;20204;-74
2023/06/19 04:38:47;;;;;;;0.00;0.00;;;;;;;20.03;71.27;99921.38;4973214;28;20647;-74
2023/06/19 04:41:13;;;;;;;0.00;0.00;;;;;;;20.05;72.01;99928.13;4973347;28;20692;-74
2023/06/19 04:43:41;;;;;;;0.00;0.00;;;;;;;20.02;71.45;99926.13;4973377;28;20189;-74
2023/06/19 04:46:06;;;;;;;3.80;0.83;;;;;;;19.89;71.77;99930.41;4973486;28;20169;-74
2023/06/19 04:48:32;;;;;;;0.00;0.00;;;;;;;19.85;72.55;99932.38;4973102;28;20197;-74
2023/06/19 04:51:00;;;;;;;0.00;0.00;;;;;;;19.85;71.91;99933.16;4973326;28;20294;-74
2023/06/19 04:53:26;;;;;;;0.00;0.00;;;;;;;19.86;71.85;99922.88;4973308;28;20183;-74
2023/06/19 04:55:54;;;;;;;0.00;0.00;;;;;;;19.88;71.66;99920.50;4973126;28;20228;-74
2023/06/19 04:58:20;;;;;;;0.00;0.00;;;;;;;19.86;71.79;99922.88;4973057;28;20202;-74
2023/06/19 05:00:51;;;;;;;0.00;0.00;;;;;;;19.81;70.95;99912.13;4973088;28;20213;-74
2023/06/19 05:03:17;;;;;;;0.00;0.00;;;;;;;19.84;70.27;99903.84;4973164;28;20645;-74
2023/06/19 05:05:44;;;;;;;0.00;0.00;;;;;;;19.89;68.87;99908.22;4973123;28;20604;-74
2023/06/19 05:08:09;;;;;;;0.00;0.00;;;;;;;19.89;66.48;99892.38;4972807;28;20189;-74
2023/06/19 05:10:34;;;;;;;0.57;0.23;;;;;;;19.90;66.56;99893.16;4972933;28;20561;-74
2023/06/19 05:13:00;;;;;;;0.00;0.00;;;;;;;19.94;66.00;99888.44;4981288;28;20198;-74
2023/06/19 05:15:26;;;;;;;0.00;0.00;;;;;;;19.87;66.19;99907.81;4972979;28;20199;-74
2023/06/19 05:17:52;;;;;;;0.70;0.70;;;;;;;19.66;68.00;99918.75;4972404;28;20178;-74
2023/06/19 05:20:17;;;;;;;0.30;0.30;;;;;;;19.57;69.97;99925.44;4973011;28;20205;-74
2023/06/19 05:22:43;;;;;;;0.00;0.00;;;;;;;19.49;71.64;99926.53;4972826;28;20244;-74
2023/06/19 05:25:08;;;;;;;0.00;0.00;;;;;;;19.67;73.06;99945.28;4972960;28;20185;-74
2023/06/19 05:27:34;;;;;;;0.00;0.00;;;;;;;19.78;73.40;99955.28;4972767;28;20655;-74
2023/06/19 05:29:59;;;;;;;0.00;0.00;;;;;;;19.52;73.41;99942.38;4972527;28;20199;-74
2023/06/19 05:32:24;;;;;;;0.00;0.00;;;;;;;19.67;74.41;99953.59;4973033;28;20186;-74
2023/06/19 05:34:50;;;;;;;0.10;0.10;;;;;;;19.80;74.34;99952.91;4972791;28;20203;-74
2023/06/19 05:37:16;;;;;;;0.93;0.93;;;;;;;19.68;74.67;99958.00;4972814;28;20194;-74
2023/06/19 05:39:41;;;;;;;0.00;0.00;;;;;;;19.68;74.75;99958.78;4972494;28;20189;-74
2023/06/19 05:42:07;;;;;;;0.00;0.00;;;;;;;19.74;75.28;99961.97;4972772;28;20197;-74
2023/06/19 05:44:33;;;;;;;0.10;0.10;;;;;;;19.75;75.55;99952.47;4972788;28;20182;-74
2023/06/19 05:46:58;;;;;;;0.10;0.10;;;;;;;19.77;75.13;99953.69;4972824;28;20193;-74
2023/06/19 05:49:23;;;;;;;0.00;0.00;;;;;;;19.91;75.03;99962.09;4972543;28;20262;-74
2023/06/19 05:51:49;;;;;;;0.00;0.00;;;;;;;19.91;73.00;99959.31;4972468;28;20202;-74
2023/06/19 05:54:14;;;;;;;0.73;0.73;;;;;;;19.81;72.58;99945.38;4971394;28;20291;-74
2023/06/19 05:56:39;;;;;;;1.03;0.63;;;;;;;19.96;72.51;99954.59;4972656;28;20183;-74
2023/06/19 05:59:05;;;;;;;0.00;0.00;;;;;;;20.06;72.58;99949.13;4972475;28;20210;-74
2023/06/19 06:01:30;;;;;;;0.00;0.00;;;;;;;20.14;72.31;99953.53;4972426;28;20700;-74
2023/06/19 06:03:56;;;;;;;0.07;0.07;;;;;;;20.26;71.00;99962.72;4972550;28;20347;-74
2023/06/19 06:06:23;;;;;;;0.00;0.00;;;;;;;20.44;66.40;99924.75;4972460;28;20178;-74
2023/06/19 06:08:49;;;;;;;0.00;0.00;;;;;;;20.64;64.67;99925.22;4972307;28;20217;-74
2023/06/19 06:11:14;;;;;;;0.00;0.00;;;;;;;20.82;63.85;99928.81;4982482;28;20207;-74
2023/06/19 06:13:39;;;;;;;0.00;0.00;;;;;;;20.99;63.78;99941.97;4972551;28;20189;-74
2023/06/19 06:16:05;;;;;;;0.03;0.03;;;;;;;21.21;62.45;99940.00;4972495;28;20280;-74
2023/06/19 06:18:30;;;;;;;0.00;0.00;;;;;;;21.31;61.94;99930.94;4970868;28;20659;-74
2023/06/19 06:20:55;;;;;;;0.00;0.00;;;;;;;21.37;62.01;99937.66;4972344;28;20236;-74
2023/06/19 06:23:21;;;;;;;0.00;0.00;;;;;;;21.43;61.96;99943.63;4972494;28;20183;-74
2023/06/19 06:25:46;;;;;;;0.00;0.00;;;;;;;21.48;62.09;99942.44;4972414;28;20593;-74
2023/06/19 06:28:12;;;;;;;0.13;0.13;;;;;;;21.47;61.83;99943.63;4972103;28;20179;-75
2023/06/19 06:30:38;;;;;;;0.00;0.00;;;;;;;21.56;61.11;99944.03;4973977;28;20208;-74
2023/06/19 06:33:04;;;;;;;0.00;0.00;;;;;;;21.53;61.80;99961.50;4976016;28;20179;-74
2023/06/19 06:35:29;;;;;;;0.20;0.20;;;;;;;21.63;60.30;99949.56;4975638;28;20200;-74
2023/06/19 06:37:55;;;;;;;0.00;0.00;;;;;;;21.72;59.92;99949.19;4975512;28;20222;-74
2023/06/19 06:40:20;;;;;;;1.90;1.80;;;;;;;21.79;59.76;99960.28;4975577;28;20211;-74
2023/06/19 06:42:47;;;;;;;0.23;0.23;;;;;;;21.82;60.33;99967.81;4975668;28;20184;-74
2023/06/19 06:45:13;;;;;;;0.00;0.00;;;;;;;21.85;61.09;99972.63;4975644;28;20176;-74
2023/06/19 06:47:39;;;;;;;0.00;0.00;;;;;;;21.89;60.29;99963.06;4975504;28;20191;-74
2023/06/19 06:50:06;;;;;;;0.17;0.17;;;;;;;21.94;60.75;99962.66;4984315;28;20188;-74
2023/06/19 06:52:31;;;;;;;0.00;0.00;;;;;;;21.97;60.10;99963.81;4975486;28;20437;-74
2023/06/19 06:54:57;;;;;;;0.00;0.00;;;;;;;21.98;60.60;99973.75;4975397;28;20203;-74
2023/06/19 06:57:22;;;;;;;0.00;0.00;;;;;;;22.02;61.08;99977.34;4975405;28;20245;-74
2023/06/19 06:59:48;;;;;;;0.30;0.30;;;;;;;22.11;61.16;99971.38;4974956;28;20190;-74
2023/06/19 07:02:13;;;;;;;0.80;0.80;;;;;;;22.19;60.80;99986.88;4975349;28;20190;-74
2023/06/19 07:04:38;;;;;;;0.20;0.20;;;;;;;22.23;60.00;99991.22;4975119;28;20188;-74
2023/06/19 07:07:05;;;;;;;0.00;0.00;;;;;;;22.30;60.62;99986.84;4975222;28;20653;-74
2023/06/19 07:09:31;;;;;;;0.50;0.50;;;;;;;22.36;60.33;99988.03;4974818;28;20181;-74
2023/06/19 07:11:56;;;;;;;0.33;0.33;;;;;;;22.44;61.13;99998.75;4975047;28;20208;-74
2023/06/19 07:14:22;;;;;;;0.27;0.27;;;;;;;22.52;61.03;99999.50;4975076;28;20202;-74
2023/06/19 07:16:47;;;;;;;0.10;0.10;;;;;;;22.62;60.32;99998.69;4974988;28;20628;-74
2023/06/19 07:19:13;;;;;;;0.00;0.00;;;;;;;22.64;59.39;99990.72;4974787;28;20532;-74
2023/06/19 07:21:39;;;;;;;0.00;0.00;;;;;;;22.71;60.05;99998.22;4974765;28;20721;-74
2023/06/19 07:24:05;;;;;;;0.30;0.30;;;;;;;22.70;60.17;100011.34;4974884;28;20198;-74
2023/06/19 07:26:31;;;;;;;1.67;1.63;;;;;;;22.65;59.50;100000.66;4974801;28;20193;-74
2023/06/19 07:28:56;;;;;;;5.60;0.90;;;;;;;22.70;60.25;100005.78;4974514;28;20659;-74
2023/06/19 07:31:22;;;;;;;0.00;0.00;;;;;;;22.76;59.72;100003.41;4974675;28;20205;-74
2023/06/19 07:33:47;;;;;;;0.00;0.00;;;;;;;22.89;61.32;100001.78;4974621;28;20215;-74
2023/06/19 07:36:14;;;;;;;0.00;0.00;;;;;;;22.99;60.88;99995.31;4974729;28;20218;-74
2023/06/19 07:38:43;;;;;;;0.53;0.23;;;;;;;23.04;59.72;99997.72;4974242;28;20189;-74
2023/06/19 07:41:10;;;;;;;0.00;0.00;;;;;;;23.15;60.09;99990.09;4972945;28;20305;-74
2023/06/19 07:43:36;;;;;;;0.20;0.20;;;;;;;23.27;59.80;99994.38;4974440;28;20198;-74
2023/06/19 07:46:02;;;;;;;0.00;0.00;;;;;;;23.43;59.84;99993.84;4974577;28;20182;-74
2023/06/19 07:48:28;;;;;;;0.00;0.00;;;;;;;23.55;59.22;100001.72;4985938;28;20562;-74
2023/06/19 07:50:53;;;;;;;0.23;0.23;;;;;;;23.67;58.45;100001.28;4974368;28;20202;-74
2023/06/19 07:53:19;;;;;;;2.73;2.53;;;;;;;23.78;58.88;100001.19;4974331;28;20674;-74
2023/06/19 07:55:44;;;;;;;0.57;0.57;;;;;;;23.82;56.94;99998.34;4974478;28;20209;-74
2023/06/19 07:58:10;;;;;;;0.20;0.20;;;;;;;23.97;56.18;99995.00;4974059;28;20186;-74
2023/06/19 08:00:35;;;;;;;2.70;2.47;;;;;;;24.03;56.24;99998.97;4974146;28;20365;-74
2023/06/19 08:03:01;;;;;;;13.83;2.90;;;;;;;23.99;55.31;99992.59;4974056;28;20697;-74
2023/06/19 08:05:26;;;;;;;2.10;1.80;;;;;;;24.04;55.74;99988.59;4974109;28;20224;-74
2023/06/19 08:07:51;;;;;;;3.43;3.13;;;;;;;24.19;55.54;99995.59;4974143;28;20272;-74
2023/06/19 08:10:17;;;;;;;1.83;1.70;;;;;;;24.37;56.70;99994.66;4973963;28;20210;-74
2023/06/19 08:12:43;;;;;;;2.53;2.27;;;;;;;24.48;55.84;99998.13;4973913;28;20241;-74
2023/06/19 08:15:10;;;;;;;2.93;2.73;;;;;;;24.53;56.80;100001.22;4973875;28;20296;-74
2023/06/19 08:17:35;;;;;;;2.27;2.17;;;;;;;24.59;56.15;100004.34;4973712;28;20268;-75
2023/06/19 08:20:01;;;;;;;3.20;1.40;;;;;;;24.55;56.24;100001.59;4973516;28;20273;-74
2023/06/19 08:22:26;;;;;;;1.77;1.67;;;;;;;24.54;56.73;100002.81;4973701;28;20278;-74
2023/06/19 08:24:52;;;;;;;0.77;0.77;;;;;;;24.68;57.51;100001.84;4973805;28;20271;-74
2023/06/19 08:27:17;;;;;;;0.90;0.90;;;;;;;24.72;57.91;99999.78;4973753;28;20277;-74
2023/06/19 08:29:43;;;;;;;1.87;1.77;;;;;;;24.63;56.19;99988.34;4973306;28;20232;-74
2023/06/19 08:32:09;;;;;;;2.80;2.60;;;;;;;24.72;57.51;100002.59;4973444;28;20721;-74
2023/06/19 08:34:34;;;;;;;2.03;1.50;;;;;;;24.65;56.79;99991.50;4973518;28;20242;-75
2023/06/19 08:37:00;;;;;;;0.77;0.77;;;;;;;24.75;56.66;100001.78;4973582;28;20189;-75
2023/06/19 08:39:25;;;;;;;0.77;0.77;;;;;;;24.88;57.21;100002.81;4973377;28;20189;-74
2023/06/19 08:41:53;;;;;;;2.20;2.00;;;;;;;24.93;56.19;100002.31;4973214;28;20201;-74
2023/06/19 08:44:18;;;;;;;2.17;2.07;;;;;;;25.02;57.62;100001.81;4973516;28;20213;-75
2023/06/19 08:46:43;;;;;;;1.77;1.67;;;;;;;24.97;56.89;99998.69;4973337;28;20209;-75
2023/06/19 08:49:12;;;;;;;3.23;1.90;;;;;;;25.03;57.11;99994.25;4973150;28;20189;-74
2023/06/19 08:51:37;;;;;;;0.00;0.00;;;;;;;24.90;57.11;99994.78;4973096;28;20202;-74
2023/06/19 08:54:05;;;;;;;1.47;1.37;;;;;;;25.08;58.08;100008.53;4972674;28;20182;-75
2023/06/19 08:56:33;;;;;;;0.00;0.00;;;;;;;25.14;57.34;100004.06;4973242;28;20719;-75
2023/06/19 08:59:09;;;;;;;3.20;2.10;;;;;;;25.20;57.14;100001.59;4973098;28;20185;-74
2023/06/19 09:01:34;;;;;;;3.10;2.83;;;;;;;25.27;58.58;100014.66;4973001;28;20246;-74
2023/06/19 09:03:59;;;;;;;1.80;1.70;;;;;;;25.34;58.51;100015.38;4973278;28;20550;-75
2023/06/19 09:06:25;;;;;;;0.80;0.80;;;;;;;25.42;57.84;100002.03;4973180;28;20644;-74
2023/06/19 09:09:00;;;;;;;1.97;1.73;;;;;;;25.64;57.83;100019.31;4972834;28;20190;-75
2023/06/19 09:11:25;;;;;;;1.93;1.83;;;;;;;25.52;57.81;100015.09;4973021;28;20236;-74
2023/06/19 09:13:57;;;;;;;0.63;0.63;;;;;;;25.58;58.61;100007.78;4971694;28;20225;-75
2023/06/19 09:16:24;;;;;;;1.60;1.50;;;;;;;25.59;57.81;100005.78;4973134;28;20190;-75
2023/06/19 09:18:49;;;;;;;1.60;1.53;;;;;;;25.62;58.61;100002.94;4972672;28;20193;-74
2023/06/19 09:21:21;;;;;;;8.17;3.13;;;;;;;25.71;57.88;100003.19;4972868;28;20207;-75
2023/06/19 09:23:47;;;;;;;1.47;1.33;;;;;;;25.72;57.88;99999.19;4972942;28;20244;-74
2023/06/19 09:26:17;;;;;;;2.60;2.40;;;;;;;25.91;58.23;100005.28;4973043;28;20178;-75
2023/06/19 09:28:43;;;;;;;0.00;0.00;;;;;;;26.00;58.06;100009.09;4972502;28;20586;-74
2023/06/19 09:31:08;;;;;;;0.07;0.07;;;;;;;26.10;56.82;99994.13;4973060;28;20248;-75
2023/06/19 09:33:34;;;;;;;0.93;0.93;;;;;;;26.32;58.37;100016.91;4972870;28;20185;-74
2023/06/19 09:36:02;;;;;;;0.40;0.40;;;;;;;26.46;57.24;100007.47;4972793;28;20260;-75
2023/06/19 09:38:37;;;;;;;1.80;1.70;;;;;;;26.32;56.16;100000.09;4972657;28;20221;-74
2023/06/19 09:41:04;;;;;;;2.30;2.10;;;;;;;26.29;57.36;100016.97;4972657;28;20208;-74
2023/06/19 09:43:39;;;;;;;1.83;1.73;;;;;;;26.39;56.10;100008.41;4972737;28;20666;-75
2023/06/19 09:46:06;;;;;;;1.50;1.50;;;;;;;26.52;56.20;100018.97;4981541;28;20213;-75
2023/06/19 09:48:34;;;;;;;0.47;0.47;;;;;;;26.46;56.15;100006.66;4972474;28;20189;-75
2023/06/19 09:51:09;;;;;;;1.27;1.17;;;;;;;26.64;56.48;100015.53;4972586;28;20202;-75
2023/06/19 09:53:36;;;;;;;1.40;1.30;;;;;;;26.47;56.93;100023.06;4972617;28;20185;-74
2023/06/19 09:56:01;;;;;;;0.70;0.70;;;;;;;26.43;57.23;100022.34;4972709;28;20301;-75
2023/06/19 09:58:28;;;;;;;0.73;0.70;;;;;;;26.16;56.74;100022.41;4972420;28;20273;-74
2023/06/19 10:00:55;;;;;;;3.17;2.90;;;;;;;25.99;57.43;100015.13;4972572;28;20231;-74
2023/06/19 10:03:20;;;;;;;1.27;1.17;;;;;;;25.72;58.63;100026.38;4972708;28;20660;-74
2023/06/19 10:05:46;;;;;;;1.90;1.77;;;;;;;25.67;58.95;100030.44;4975908;28;20221;-74
2023/06/19 10:08:12;;;;;;;1.43;1.33;;;;;;;25.71;59.21;100027.59;4974657;28;20197;-74
2023/06/19 10:10:48;;;;;;;0.87;0.87;;;;;;;25.80;58.36;100036.25;4976116;28;20284;-74
2023/06/19 10:13:15;;;;;;;1.20;1.13;;;;;;;26.12;57.68;100035.69;4974964;28;20185;-74
2023/06/19 10:15:42;;;;;;;2.50;1.77;;;;;;;26.44;58.51;100042.75;4989613;28;20221;-74
2023/06/19 10:18:16;;;;;;;2.70;1.77;;;;;;;26.23;57.83;100029.91;4976006;28;20182;-74
2023/06/19 10:20:42;;;;;;;5.03;1.80;;;;;;;25.92;58.39;100044.06;4975763;28;20736;-74
2023/06/19 10:23:18;;;;;;;1.07;1.07;;;;;;;25.80;58.91;100045.44;4976085;28;20647;-74
2023/06/19 10:25:46;;;;;;;0.47;0.47;;;;;;;25.76;59.75;100041.91;4975922;28;20182;-74
2023/06/19 10:28:33;;;;;;;1.40;1.30;;;;;;;25.83;61.68;100055.00;4975589;28;20718;-75
2023/06/19 10:31:01;;;;;;;2.20;2.00;;;;;;;25.80;60.24;100048.25;4983631;28;20896;-74
2023/06/19 10:33:28;;;;;;;2.60;2.40;;;;;;;25.98;59.62;100033.94;4975739;28;20181;-74
2023/06/19 10:35:54;;;;;;;2.97;2.77;;;;;;;26.25;59.51;100042.25;4975660;28;20645;-74
2023/06/19 10:38:20;;;;;;;2.60;2.37;;;;;;;26.23;58.63;100041.13;4975545;28;20213;-74
2023/06/19 10:40:47;;;;;;;0.97;0.80;;;;;;;26.26;58.85;100046.63;4975549;28;20209;-74
2023/06/19 10:43:19;;;;;;;3.83;2.37;;;;;;;26.34;58.90;100050.91;4975687;28;20186;-75
2023/06/19 10:45:44;;;;;;;1.57;1.47;;;;;;;26.33;56.95;100032.53;4975483;28;20195;-75
2023/06/19 10:48:09;;;;;;;2.47;2.27;;;;;;;26.33;57.67;100032.53;4975340;28;20186;-75
2023/06/19 10:50:38;;;;;;;2.80;2.60;;;;;;;26.37;58.91;100040.88;4975418;28;20671;-75
2023/06/19 10:53:04;;;;;;;2.87;2.77;;;;;;;26.21;58.51;100038.75;4975446;28;20692;-75
2023/06/19 10:55:29;;;;;;;0.47;0.47;;;;;;;26.08;57.95;100034.97;4975359;28;20205;-75
2023/06/19 10:57:55;;;;;;;1.67;1.57;;;;;;;26.25;57.59;100035.88;4975151;28;20605;-75
2023/06/19 11:00:33;;;;;;;0.87;0.40;;;;;;;26.56;58.47;100031.69;4975159;28;20206;-75
2023/06/19 11:02:59;;;;;;;2.90;2.70;;;;;;;26.66;57.71;100024.28;4975254;28;20193;-75
2023/06/19 11:05:27;;;;;;;2.30;2.10;;;;;;;26.47;58.30;100023.06;4975261;28;20177;-75
2023/06/19 11:07:53;;;;;;;3.23;3.00;;;;;;;26.32;58.93;100032.91;4975022;28;20185;-75
2023/06/19 11:10:22;;;;;;;1.67;1.57;;;;;;;26.30;57.97;100022.16;4975586;28;20207;-75
2023/06/19 11:12:47;;;;;;;0.33;0.33;;;;;;;26.22;57.98;100025.53;4974924;28;20177;-74
2023/06/19 11:15:13;;;;;;;2.43;2.33;;;;;;;26.22;59.12;100023.50;4974836;28;20210;-75
2023/06/19 11:17:38;;;;;;;2.20;2.00;;;;;;;26.32;59.60;100032.91;4974504;28;20193;-75
2023/06/19 11:20:08;;;;;;;9.40;1.80;;;;;;;26.50;59.08;100036.22;4974820;28;20544;-75
2023/06/19 11:22:37;;;;;;;1.47;1.37;;;;;;;26.59;58.70;100039.22;4974892;28;20178;-75
2023/06/19 11:25:03;;;;;;;0.63;0.63;;;;;;;26.57;58.47;100043.69;4974960;28;20423;-74
2023/06/19 11:27:30;;;;;;;0.20;0.20;;;;;;;26.48;59.01;100029.47;4975055;28;20232;-74